sensor_id;sensor_type;location;lat;lon;timestamp;pressure;altitude;pressure_sealevel;temperature;humidity
76201;BME280;64981;52.930;9.266;2023-03-01T00:00:53;102912.38;;;-0.49;64.66
76201;BME280;64981;52.930;9.266;2023-03-01T00:03:18;102917.47;;;-0.44;64.24
76201;BME280;64981;52.930;9.266;2023-03-01T00:05:45;102917.53;;;-0.47;64.35
76201;BME280;64981;52.930;9.266;2023-03-01T00:08:11;102920.97;;;-0.47;64.38
76201;BME280;64981;52.930;9.266;2023-03-01T00:10:36;102915.81;;;-0.48;64.38
76201;BME280;64981;52.930;9.266;2023-03-01T00:13:02;102912.59;;;-0.58;64.48
76201;BME280;64981;52.930;9.266;2023-03-01T00:15:31;102912.59;;;-0.58;64.94
76201;BME280;64981;52.930;9.266;2023-03-01T00:17:57;102906.22;;;-0.78;66.24
76201;BME280;64981;52.930;9.266;2023-03-01T00:20:23;102896.47;;;-0.70;65.87
76201;BME280;64981;52.930;9.266;2023-03-01T00:22:48;102909.56;;;-0.75;64.69
76201;BME280;64981;52.930;9.266;2023-03-01T00:25:14;102910.16;;;-0.64;64.66
76201;BME280;64981;52.930;9.266;2023-03-01T00:27:40;102904.97;;;-0.64;64.48
76201;BME280;64981;52.930;9.266;2023-03-01T00:30:06;102903.25;;;-0.65;65.08
76201;BME280;64981;52.930;9.266;2023-03-01T00:32:31;102899.81;;;-0.65;64.64
76201;BME280;64981;52.930;9.266;2023-03-01T00:34:57;102893.16;;;-0.75;64.64
76201;BME280;64981;52.930;9.266;2023-03-01T00:37:24;102895.84;;;-0.80;64.90
76201;BME280;64981;52.930;9.266;2023-03-01T00:39:50;102893.22;;;-0.78;64.16
76201;BME280;64981;52.930;9.266;2023-03-01T00:42:16;102891.47;;;-0.78;64.44
76201;BME280;64981;52.930;9.266;2023-03-01T00:44:42;102893.25;;;-0.80;64.95
76201;BME280;64981;52.930;9.266;2023-03-01T00:47:08;102899.13;;;-0.72;64.97
76201;BME280;64981;52.930;9.266;2023-03-01T00:49:34;102901.66;;;-0.69;64.22
76201;BME280;64981;52.930;9.266;2023-03-01T00:51:59;102910.34;;;-0.71;64.36
76201;BME280;64981;52.930;9.266;2023-03-01T00:54:25;102908.97;;;-0.86;64.55
76201;BME280;64981;52.930;9.266;2023-03-01T00:56:50;102909.06;;;-0.90;65.22
76201;BME280;64981;52.930;9.266;2023-03-01T00:59:16;102910.97;;;-0.97;65.30
76201;BME280;64981;52.930;9.266;2023-03-01T01:01:41;102901.56;;;-1.01;65.61
76201;BME280;64981;52.930;9.266;2023-03-01T01:04:10;102894.56;;;-0.98;65.48
76201;BME280;64981;52.930;9.266;2023-03-01T01:06:40;102895.66;;;-1.09;65.68
76201;BME280;64981;52.930;9.266;2023-03-01T01:09:09;102891.13;;;-1.00;65.04
76201;BME280;64981;52.930;9.266;2023-03-01T01:11:44;102899.03;;;-1.06;65.19
76201;BME280;64981;52.930;9.266;2023-03-01T01:14:10;102875.75;;;-1.07;65.32
76201;BME280;64981;52.930;9.266;2023-03-01T01:16:36;102885.28;;;-1.08;65.39
76201;BME280;64981;52.930;9.266;2023-03-01T01:19:02;102879.28;;;-1.10;65.41
76201;BME280;64981;52.930;9.266;2023-03-01T01:21:28;102881.81;;;-1.07;65.51
76201;BME280;64981;52.930;9.266;2023-03-01T01:23:53;102888.03;;;-1.15;65.68
76201;BME280;64981;52.930;9.266;2023-03-01T01:26:22;102883.69;;;-1.15;65.09
76201;BME280;64981;52.930;9.266;2023-03-01T01:28:48;102886.28;;;-1.15;65.18
76201;BME280;64981;52.930;9.266;2023-03-01T01:31:15;102880.31;;;-1.17;65.44
76201;BME280;64981;52.930;9.266;2023-03-01T01:33:41;102879.44;;;-1.17;65.78
76201;BME280;64981;52.930;9.266;2023-03-01T01:36:08;102876.25;;;-1.28;66.14
76201;BME280;64981;52.930;9.266;2023-03-01T01:38:35;102880.44;;;-1.23;65.98
76201;BME280;64981;52.930;9.266;2023-03-01T01:41:06;102876.13;;;-1.24;65.52
76201;BME280;64981;52.930;9.266;2023-03-01T01:43:36;102876.94;;;-1.22;65.59
76201;BME280;64981;52.930;9.266;2023-03-01T01:46:07;102869.94;;;-1.17;64.92
76201;BME280;64981;52.930;9.266;2023-03-01T01:48:43;102864.75;;;-1.17;65.60
76201;BME280;64981;52.930;9.266;2023-03-01T01:51:16;102879.50;;;-1.19;66.14
76201;BME280;64981;52.930;9.266;2023-03-01T01:53:47;102866.47;;;-1.17;65.80
76201;BME280;64981;52.930;9.266;2023-03-01T01:56:18;102869.81;;;-1.12;65.27
76201;BME280;64981;52.930;9.266;2023-03-01T01:58:45;102865.47;;;-1.12;65.43
76201;BME280;64981;52.930;9.266;2023-03-01T02:01:12;102869.66;;;-1.06;65.42
76201;BME280;64981;52.930;9.266;2023-03-01T02:03:41;102849.91;;;-1.10;65.97
76201;BME280;64981;52.930;9.266;2023-03-01T02:06:17;102857.59;;;-1.07;65.50
76201;BME280;64981;52.930;9.266;2023-03-01T02:08:46;102851.06;;;-1.23;66.05
76201;BME280;64981;52.930;9.266;2023-03-01T02:11:14;102849.97;;;-1.13;65.58
76201;BME280;64981;52.930;9.266;2023-03-01T02:13:42;102859.34;;;-1.08;65.42
76201;BME280;64981;52.930;9.266;2023-03-01T02:16:10;102841.28;;;-1.12;64.93
76201;BME280;64981;52.930;9.266;2023-03-01T02:18:39;102853.00;;;-1.33;66.38
76201;BME280;64981;52.930;9.266;2023-03-01T02:23:54;102858.41;;;-1.42;66.16
76201;BME280;64981;52.930;9.266;2023-03-01T02:26:34;102844.72;;;-1.47;66.87
76201;BME280;64981;52.930;9.266;2023-03-01T02:29:03;102842.94;;;-1.45;66.29
76201;BME280;64981;52.930;9.266;2023-03-01T02:31:31;102848.91;;;-1.41;66.16
76201;BME280;64981;52.930;9.266;2023-03-01T02:34:13;102835.31;;;-1.53;66.28
76201;BME280;64981;52.930;9.266;2023-03-01T02:36:51;102832.84;;;-1.57;66.39
76201;BME280;64981;52.930;9.266;2023-03-01T02:39:26;102848.13;;;-1.46;66.41
76201;BME280;64981;52.930;9.266;2023-03-01T02:41:54;102846.41;;;-1.46;66.51
76201;BME280;64981;52.930;9.266;2023-03-01T02:44:21;102836.94;;;-1.48;66.47
76201;BME280;64981;52.930;9.266;2023-03-01T02:46:50;102842.94;;;-1.45;66.51
76201;BME280;64981;52.930;9.266;2023-03-01T02:49:27;102843.06;;;-1.53;66.72
76201;BME280;64981;52.930;9.266;2023-03-01T02:55:10;102847.53;;;-1.59;66.45
76201;BME280;64981;52.930;9.266;2023-03-01T02:57:39;102834.69;;;-1.64;66.89
76201;BME280;64981;52.930;9.266;2023-03-01T03:00:12;102828.78;;;-1.70;67.05
76201;BME280;64981;52.930;9.266;2023-03-01T03:02:46;102826.06;;;-1.64;66.85
76201;BME280;64981;52.930;9.266;2023-03-01T03:05:18;102831.19;;;-1.61;66.63
76201;BME280;64981;52.930;9.266;2023-03-01T03:07:46;102820.81;;;-1.60;66.37
76201;BME280;64981;52.930;9.266;2023-03-01T03:10:22;102826.13;;;-1.67;66.68
76201;BME280;64981;52.930;9.266;2023-03-01T03:12:56;102827.91;;;-1.69;66.88
76201;BME280;64981;52.930;9.266;2023-03-01T03:15:25;102831.19;;;-1.61;66.74
76201;BME280;64981;52.930;9.266;2023-03-01T03:17:52;102820.00;;;-1.63;66.48
76201;BME280;64981;52.930;9.266;2023-03-01T03:20:21;102823.41;;;-1.61;66.51
76201;BME280;64981;52.930;9.266;2023-03-01T03:22:50;102818.31;;;-1.64;66.55
76201;BME280;64981;52.930;9.266;2023-03-01T03:25:17;102815.72;;;-1.66;66.54
76201;BME280;64981;52.930;9.266;2023-03-01T03:27:46;102816.72;;;-1.71;66.72
76201;BME280;64981;52.930;9.266;2023-03-01T03:30:18;102806.34;;;-1.71;66.12
76201;BME280;64981;52.930;9.266;2023-03-01T03:32:47;102809.94;;;-1.77;67.01
76201;BME280;64981;52.930;9.266;2023-03-01T03:35:15;102812.59;;;-1.80;67.19
76201;BME280;64981;52.930;9.266;2023-03-01T03:37:41;102808.09;;;-1.72;66.39
76201;BME280;64981;52.930;9.266;2023-03-01T03:40:25;102797.72;;;-1.72;66.74
76201;BME280;64981;52.930;9.266;2023-03-01T03:42:51;102798.66;;;-1.74;66.97
76201;BME280;64981;52.930;9.266;2023-03-01T03:45:17;102799.44;;;-1.71;67.08
76201;BME280;64981;52.930;9.266;2023-03-01T03:47:44;102801.38;;;-1.79;67.57
76201;BME280;64981;52.930;9.266;2023-03-01T03:50:12;102791.84;;;-1.78;67.47
76201;BME280;64981;52.930;9.266;2023-03-01T03:52:37;102778.13;;;-1.82;67.76
76201;BME280;64981;52.930;9.266;2023-03-01T03:55:05;102784.91;;;-1.78;67.28
76201;BME280;64981;52.930;9.266;2023-03-01T03:57:37;102779.66;;;-1.73;67.20
76201;BME280;64981;52.930;9.266;2023-03-01T04:00:05;102781.44;;;-1.75;66.98
76201;BME280;64981;52.930;9.266;2023-03-01T04:02:31;102779.94;;;-1.87;67.13
76201;BME280;64981;52.930;9.266;2023-03-01T04:04:56;102775.59;;;-1.85;67.10
76201;BME280;64981;52.930;9.266;2023-03-01T04:07:22;102790.94;;;-1.77;67.07
76201;BME280;64981;52.930;9.266;2023-03-01T04:09:48;102777.19;;;-1.79;67.28
76201;BME280;64981;52.930;9.266;2023-03-01T04:12:13;102773.75;;;-1.81;66.75
76201;BME280;64981;52.930;9.266;2023-03-01T04:14:39;102770.28;;;-1.80;67.11
76201;BME280;64981;52.930;9.266;2023-03-01T04:17:05;102766.31;;;-1.95;67.56
76201;BME280;64981;52.930;9.266;2023-03-01T04:19:31;102768.91;;;-1.95;67.79
76201;BME280;64981;52.930;9.266;2023-03-01T04:22:02;102764.00;;;-2.09;68.48
76201;BME280;64981;52.930;9.266;2023-03-01T04:24:35;102771.56;;;-1.98;67.57
76201;BME280;64981;52.930;9.266;2023-03-01T04:27:01;102780.84;;;-1.89;67.70
76201;BME280;64981;52.930;9.266;2023-03-01T04:29:27;102772.16;;;-1.87;67.42
76201;BME280;64981;52.930;9.266;2023-03-01T04:31:53;102775.88;;;-1.98;67.72
76201;BME280;64981;52.930;9.266;2023-03-01T04:34:19;102781.78;;;-1.92;67.63
76201;BME280;64981;52.930;9.266;2023-03-01T04:36:45;102775.75;;;-1.92;67.54
76201;BME280;64981;52.930;9.266;2023-03-01T04:39:10;102776.88;;;-2.04;67.82
76201;BME280;64981;52.930;9.266;2023-03-01T04:41:38;102771.56;;;-1.99;67.28
76201;BME280;64981;52.930;9.266;2023-03-01T04:44:05;102774.34;;;-2.09;67.67
76201;BME280;64981;52.930;9.266;2023-03-01T04:46:31;102775.41;;;-2.19;67.94
76201;BME280;64981;52.930;9.266;2023-03-01T04:48:57;102775.91;;;-2.00;67.45
76201;BME280;64981;52.930;9.266;2023-03-01T04:51:22;102762.84;;;-1.94;67.04
76201;BME280;64981;52.930;9.266;2023-03-01T04:53:49;102776.31;;;-1.78;66.63
76201;BME280;64981;52.930;9.266;2023-03-01T04:56:16;102771.31;;;-1.87;67.23
76201;BME280;64981;52.930;9.266;2023-03-01T04:58:44;102760.34;;;-2.00;67.30
76201;BME280;64981;52.930;9.266;2023-03-01T05:01:12;102770.78;;;-2.03;67.56
76201;BME280;64981;52.930;9.266;2023-03-01T05:03:44;102758.81;;;-2.09;67.47
76201;BME280;64981;52.930;9.266;2023-03-01T05:06:10;102773.38;;;-2.03;67.91
76201;BME280;64981;52.930;9.266;2023-03-01T05:08:37;102778.53;;;-2.01;67.54
76201;BME280;64981;52.930;9.266;2023-03-01T05:11:03;102759.63;;;-2.05;67.25
76201;BME280;64981;52.930;9.266;2023-03-01T05:13:28;102768.97;;;-1.98;66.60
76201;BME280;64981;52.930;9.266;2023-03-01T05:15:57;102768.09;;;-1.98;67.02
76201;BME280;64981;52.930;9.266;2023-03-01T05:18:25;102763.22;;;-2.12;67.74
76201;BME280;64981;52.930;9.266;2023-03-01T05:20:54;102765.06;;;-2.19;67.94
76201;BME280;64981;52.930;9.266;2023-03-01T05:23:22;102759.06;;;-2.19;67.87
76201;BME280;64981;52.930;9.266;2023-03-01T05:25:48;102758.88;;;-2.12;67.22
76201;BME280;64981;52.930;9.266;2023-03-01T05:28:15;102768.50;;;-2.17;67.60
76201;BME280;64981;52.930;9.266;2023-03-01T05:30:41;102764.31;;;-2.22;67.91
76201;BME280;64981;52.930;9.266;2023-03-01T05:33:07;102766.72;;;-2.15;67.64
76201;BME280;64981;52.930;9.266;2023-03-01T05:35:41;102770.22;;;-2.17;67.83
76201;BME280;64981;52.930;9.266;2023-03-01T05:38:08;102776.47;;;-2.27;67.91
76201;BME280;64981;52.930;9.266;2023-03-01T05:40:34;102771.75;;;-2.07;67.54
76201;BME280;64981;52.930;9.266;2023-03-01T05:43:00;102768.31;;;-2.08;67.48
76201;BME280;64981;52.930;9.266;2023-03-01T05:45:27;102778.69;;;-2.09;67.75
76201;BME280;64981;52.930;9.266;2023-03-01T05:47:53;102783.19;;;-2.17;68.33
76201;BME280;64981;52.930;9.266;2023-03-01T05:50:25;102779.78;;;-2.19;67.92
76201;BME280;64981;52.930;9.266;2023-03-01T05:53:00;102773.09;;;-2.31;68.67
76201;BME280;64981;52.930;9.266;2023-03-01T05:55:28;102781.50;;;-2.20;68.45
76201;BME280;64981;52.930;9.266;2023-03-01T05:57:54;102781.34;;;-2.12;68.04
76201;BME280;64981;52.930;9.266;2023-03-01T06:00:21;102785.28;;;-1.94;67.89
76201;BME280;64981;52.930;9.266;2023-03-01T06:02:48;102787.69;;;-1.87;67.75
76201;BME280;64981;52.930;9.266;2023-03-01T06:05:15;102786.50;;;-2.12;68.40
76201;BME280;64981;52.930;9.266;2023-03-01T06:07:41;102782.91;;;-2.03;68.06
76201;BME280;64981;52.930;9.266;2023-03-01T06:10:08;102788.97;;;-2.06;67.45
76201;BME280;64981;52.930;9.266;2023-03-01T06:12:36;102793.34;;;-2.08;67.57
76201;BME280;64981;52.930;9.266;2023-03-01T06:15:03;102782.84;;;-2.02;67.29
76201;BME280;64981;52.930;9.266;2023-03-01T06:17:31;102785.09;;;-1.85;67.18
76201;BME280;64981;52.930;9.266;2023-03-01T06:19:58;102776.66;;;-1.95;66.87
76201;BME280;64981;52.930;9.266;2023-03-01T06:22:24;102779.84;;;-1.82;66.89
76201;BME280;64981;52.930;9.266;2023-03-01T06:24:49;102778.19;;;-1.85;67.03
76201;BME280;64981;52.930;9.266;2023-03-01T06:27:15;102774.66;;;-1.82;66.96
76201;BME280;64981;52.930;9.266;2023-03-01T06:29:41;102773.41;;;-1.65;66.94
76201;BME280;64981;52.930;9.266;2023-03-01T06:32:07;102761.22;;;-1.60;65.72
76201;BME280;64981;52.930;9.266;2023-03-01T06:34:33;102762.03;;;-1.58;65.73
76201;BME280;64981;52.930;9.266;2023-03-01T06:36:59;102768.28;;;-1.31;65.09
76201;BME280;64981;52.930;9.266;2023-03-01T06:39:24;102771.94;;;-1.38;65.55
76201;BME280;64981;52.930;9.266;2023-03-01T06:41:50;102762.53;;;-1.08;64.88
76201;BME280;64981;52.930;9.266;2023-03-01T06:44:15;102766.09;;;-0.78;64.00
76201;BME280;64981;52.930;9.266;2023-03-01T06:46:41;102773.50;;;-0.65;62.81
76201;BME280;64981;52.930;9.266;2023-03-01T06:49:07;102777.13;;;-0.38;62.69
76201;BME280;64981;52.930;9.266;2023-03-01T06:51:36;102775.16;;;-0.30;61.99
76201;BME280;64981;52.930;9.266;2023-03-01T06:54:04;102760.41;;;-0.29;62.39
76201;BME280;64981;52.930;9.266;2023-03-01T06:56:30;102758.91;;;-0.07;60.78
76201;BME280;64981;52.930;9.266;2023-03-01T06:58:56;102757.69;;;0.32;60.57
76201;BME280;64981;52.930;9.266;2023-03-01T07:01:22;102749.50;;;0.72;59.14
76201;BME280;64981;52.930;9.266;2023-03-01T07:03:47;102758.69;;;1.08;58.22
76201;BME280;64981;52.930;9.266;2023-03-01T07:06:13;102763.00;;;1.34;57.15
76201;BME280;64981;52.930;9.266;2023-03-01T07:08:39;102748.59;;;1.49;56.75
76201;BME280;64981;52.930;9.266;2023-03-01T07:11:04;102752.81;;;1.98;55.95
76201;BME280;64981;52.930;9.266;2023-03-01T07:13:31;102760.06;;;1.91;55.16
76201;BME280;64981;52.930;9.266;2023-03-01T07:15:57;102755.25;;;2.47;54.29
76201;BME280;64981;52.930;9.266;2023-03-01T07:18:23;102751.53;;;2.74;54.21
76201;BME280;64981;52.930;9.266;2023-03-01T07:20:49;102751.28;;;2.80;53.46
76201;BME280;64981;52.930;9.266;2023-03-01T07:23:14;102748.47;;;3.46;52.49
76201;BME280;64981;52.930;9.266;2023-03-01T07:25:41;102752.53;;;3.71;51.43
76201;BME280;64981;52.930;9.266;2023-03-01T07:28:06;102746.31;;;4.30;49.78
76201;BME280;64981;52.930;9.266;2023-03-01T07:30:32;102742.38;;;4.40;49.07
76201;BME280;64981;52.930;9.266;2023-03-01T07:32:58;102742.03;;;4.48;49.37
76201;BME280;64981;52.930;9.266;2023-03-01T07:35:26;102744.28;;;4.72;48.85
76201;BME280;64981;52.930;9.266;2023-03-01T07:37:52;102749.81;;;4.66;49.03
76201;BME280;64981;52.930;9.266;2023-03-01T07:40:18;102740.66;;;4.75;48.80
76201;BME280;64981;52.930;9.266;2023-03-01T07:42:44;102748.56;;;4.56;49.97
76201;BME280;64981;52.930;9.266;2023-03-01T07:45:10;102741.03;;;4.50;49.82
76201;BME280;64981;52.930;9.266;2023-03-01T07:47:36;102747.88;;;4.53;49.48
76201;BME280;64981;52.930;9.266;2023-03-01T07:50:03;102749.16;;;4.25;50.42
76201;BME280;64981;52.930;9.266;2023-03-01T07:52:29;102756.66;;;3.38;52.10
76201;BME280;64981;52.930;9.266;2023-03-01T07:54:56;102742.72;;;3.76;52.01
76201;BME280;64981;52.930;9.266;2023-03-01T07:57:22;102744.09;;;4.04;51.18
76201;BME280;64981;52.930;9.266;2023-03-01T07:59:48;102751.97;;;4.39;49.97
76201;BME280;64981;52.930;9.266;2023-03-01T08:02:13;102749.44;;;4.74;49.53
76201;BME280;64981;52.930;9.266;2023-03-01T08:04:41;102748.97;;;4.83;49.27
76201;BME280;64981;52.930;9.266;2023-03-01T08:07:07;102744.53;;;5.19;48.72
76201;BME280;64981;52.930;9.266;2023-03-01T08:09:35;102741.78;;;5.71;47.59
76201;BME280;64981;52.930;9.266;2023-03-01T08:12:02;102733.94;;;6.02;46.34
76201;BME280;64981;52.930;9.266;2023-03-01T08:14:30;102733.78;;;6.21;45.38
76201;BME280;64981;52.930;9.266;2023-03-01T08:16:56;102732.94;;;6.04;45.51
76201;BME280;64981;52.930;9.266;2023-03-01T08:19:22;102738.03;;;6.69;45.66
76201;BME280;64981;52.930;9.266;2023-03-01T08:21:47;102738.41;;;6.47;45.30
76201;BME280;64981;52.930;9.266;2023-03-01T08:24:13;102729.06;;;6.73;45.09
76201;BME280;64981;52.930;9.266;2023-03-01T08:26:39;102732.69;;;6.86;44.29
76201;BME280;64981;52.930;9.266;2023-03-01T08:29:05;102734.53;;;7.14;44.49
76201;BME280;64981;52.930;9.266;2023-03-01T08:31:33;102736.31;;;7.13;43.40
76201;BME280;64981;52.930;9.266;2023-03-01T08:34:04;102737.94;;;7.30;43.02
76201;BME280;64981;52.930;9.266;2023-03-01T08:36:32;102738.03;;;7.28;43.22
76201;BME280;64981;52.930;9.266;2023-03-01T08:38:58;102725.91;;;7.40;43.21
76201;BME280;64981;52.930;9.266;2023-03-01T08:41:24;102742.66;;;7.53;43.41
76201;BME280;64981;52.930;9.266;2023-03-01T08:43:50;102733.91;;;7.67;43.65
76201;BME280;64981;52.930;9.266;2023-03-01T08:46:16;102717.84;;;8.12;42.74
76201;BME280;64981;52.930;9.266;2023-03-01T08:48:42;102718.56;;;8.55;41.70
76201;BME280;64981;52.930;9.266;2023-03-01T08:51:12;102717.94;;;8.91;41.09
76201;BME280;64981;52.930;9.266;2023-03-01T08:53:39;102717.22;;;9.01;41.86
76201;BME280;64981;52.930;9.266;2023-03-01T08:56:06;102713.13;;;9.35;40.25
76201;BME280;64981;52.930;9.266;2023-03-01T08:58:33;102708.78;;;9.47;41.28
76201;BME280;64981;52.930;9.266;2023-03-01T09:00:58;102717.53;;;9.60;40.21
76201;BME280;64981;52.930;9.266;2023-03-01T09:03:25;102707.97;;;9.95;39.75
76201;BME280;64981;52.930;9.266;2023-03-01T09:05:52;102697.53;;;9.81;39.50
76201;BME280;64981;52.930;9.266;2023-03-01T09:08:19;102696.16;;;9.88;39.29
76201;BME280;64981;52.930;9.266;2023-03-01T09:10:45;102678.31;;;9.43;40.09
76201;BME280;64981;52.930;9.266;2023-03-01T09:13:11;102692.97;;;9.47;40.49
76201;BME280;64981;52.930;9.266;2023-03-01T09:15:38;102701.66;;;9.85;39.97
76201;BME280;64981;52.930;9.266;2023-03-01T09:18:04;102696.97;;;10.01;38.87
76201;BME280;64981;52.930;9.266;2023-03-01T09:20:31;102703.41;;;10.57;38.33
76201;BME280;64981;52.930;9.266;2023-03-01T09:22:57;102692.72;;;11.16;36.98
76201;BME280;64981;52.930;9.266;2023-03-01T09:25:22;102688.31;;;11.72;35.00
76201;BME280;64981;52.930;9.266;2023-03-01T09:27:52;102701.91;;;12.32;34.02
76201;BME280;64981;52.930;9.266;2023-03-01T09:30:18;102685.47;;;12.70;33.72
76201;BME280;64981;52.930;9.266;2023-03-01T09:32:44;102685.91;;;12.75;33.17
76201;BME280;64981;52.930;9.266;2023-03-01T09:35:11;102693.31;;;13.34;32.84
76201;BME280;64981;52.930;9.266;2023-03-01T09:37:37;102685.25;;;13.45;32.39
76201;BME280;64981;52.930;9.266;2023-03-01T09:40:05;102690.91;;;13.61;32.51
76201;BME280;64981;52.930;9.266;2023-03-01T09:42:34;102682.75;;;13.23;32.66
76201;BME280;64981;52.930;9.266;2023-03-01T09:45:11;102683.56;;;13.84;32.48
76201;BME280;64981;52.930;9.266;2023-03-01T09:47:37;102684.69;;;13.81;32.41
76201;BME280;64981;52.930;9.266;2023-03-01T09:50:18;102682.88;;;13.91;31.69
76201;BME280;64981;52.930;9.266;2023-03-01T09:52:54;102683.91;;;13.30;32.80
76201;BME280;64981;52.930;9.266;2023-03-01T09:55:32;102678.88;;;13.67;32.48
76201;BME280;64981;52.930;9.266;2023-03-01T09:58:16;102683.19;;;13.98;32.93
76201;BME280;64981;52.930;9.266;2023-03-01T10:00:49;102683.66;;;14.03;32.18
76201;BME280;64981;52.930;9.266;2023-03-01T10:03:28;102676.22;;;14.74;30.40
76201;BME280;64981;52.930;9.266;2023-03-01T10:06:04;102682.66;;;14.71;32.14
76201;BME280;64981;52.930;9.266;2023-03-01T10:08:42;102675.69;;;14.51;31.45
76201;BME280;64981;52.930;9.266;2023-03-01T10:11:21;102672.53;;;15.13;31.47
76201;BME280;64981;52.930;9.266;2023-03-01T10:13:59;102672.31;;;14.78;31.74
76201;BME280;64981;52.930;9.266;2023-03-01T10:16:45;102678.31;;;15.36;30.24
76201;BME280;64981;52.930;9.266;2023-03-01T10:19:24;102667.31;;;16.03;29.54
76201;BME280;64981;52.930;9.266;2023-03-01T10:21:53;102659.34;;;16.21;29.14
76201;BME280;64981;52.930;9.266;2023-03-01T10:24:20;102664.69;;;16.38;29.37
76201;BME280;64981;52.930;9.266;2023-03-01T10:26:55;102667.59;;;16.27;28.80
76201;BME280;64981;52.930;9.266;2023-03-01T10:29:31;102655.78;;;16.73;29.19
76201;BME280;64981;52.930;9.266;2023-03-01T10:31:57;102666.47;;;16.02;29.32
76201;BME280;64981;52.930;9.266;2023-03-01T10:34:32;102661.34;;;16.54;28.80
76201;BME280;64981;52.930;9.266;2023-03-01T10:37:17;102665.91;;;16.87;28.12
76201;BME280;64981;52.930;9.266;2023-03-01T10:40:07;102667.38;;;16.64;28.89
76201;BME280;64981;52.930;9.266;2023-03-01T10:42:39;102665.81;;;16.53;28.51
76201;BME280;64981;52.930;9.266;2023-03-01T10:45:35;102668.94;;;16.49;30.23
76201;BME280;64981;52.930;9.266;2023-03-01T10:48:21;102671.41;;;15.16;31.34
76201;BME280;64981;52.930;9.266;2023-03-01T10:51:05;102654.56;;;14.40;32.95
76201;BME280;64981;52.930;9.266;2023-03-01T10:53:42;102660.16;;;14.27;33.27
76201;BME280;64981;52.930;9.266;2023-03-01T10:56:10;102656.34;;;14.68;32.48
76201;BME280;64981;52.930;9.266;2023-03-01T10:58:41;102659.28;;;14.84;32.30
76201;BME280;64981;52.930;9.266;2023-03-01T11:01:28;102661.13;;;14.55;33.34
76201;BME280;64981;52.930;9.266;2023-03-01T11:04:10;102664.19;;;14.70;32.62
76201;BME280;64981;52.930;9.266;2023-03-01T11:06:38;102663.78;;;12.44;36.04
76201;BME280;64981;52.930;9.266;2023-03-01T11:09:20;102663.91;;;12.75;36.55
76201;BME280;64981;52.930;9.266;2023-03-01T11:11:52;102658.84;;;12.72;36.63
76201;BME280;64981;52.930;9.266;2023-03-01T11:14:22;102656.13;;;12.62;36.70
76201;BME280;64981;52.930;9.266;2023-03-01T11:17:02;102657.78;;;12.42;37.47
76201;BME280;64981;52.930;9.266;2023-03-01T11:19:28;102653.13;;;12.03;38.24
76201;BME280;64981;52.930;9.266;2023-03-01T11:22:06;102649.88;;;12.00;38.27
76201;BME280;64981;52.930;9.266;2023-03-01T11:24:52;102645.22;;;12.24;38.04
76201;BME280;64981;52.930;9.266;2023-03-01T11:27:24;102639.59;;;12.17;38.08
76201;BME280;64981;52.930;9.266;2023-03-01T11:29:57;102629.25;;;12.14;38.13
76201;BME280;64981;52.930;9.266;2023-03-01T11:32:29;102639.03;;;12.34;38.65
76201;BME280;64981;52.930;9.266;2023-03-01T11:35:10;102642.09;;;12.71;38.66
76201;BME280;64981;52.930;9.266;2023-03-01T11:37:55;102636.25;;;12.57;38.40
76201;BME280;64981;52.930;9.266;2023-03-01T11:40:29;102628.94;;;13.11;37.93
76201;BME280;64981;52.930;9.266;2023-03-01T11:43:19;102637.00;;;13.00;37.67
76201;BME280;64981;52.930;9.266;2023-03-01T11:48:54;102628.66;;;13.94;37.57
76201;BME280;64981;52.930;9.266;2023-03-01T11:51:46;102624.53;;;13.71;37.44
76201;BME280;64981;52.930;9.266;2023-03-01T12:00:42;102614.22;;;15.20;36.20
76201;BME280;64981;52.930;9.266;2023-03-01T12:06:23;102604.63;;;13.46;38.03
76201;BME280;64981;52.930;9.266;2023-03-01T12:09:07;102600.75;;;13.20;39.82
76201;BME280;64981;52.930;9.266;2023-03-01T12:12:00;102599.97;;;13.29;40.17
76201;BME280;64981;52.930;9.266;2023-03-01T12:14:51;102593.84;;;12.77;39.79
76201;BME280;64981;52.930;9.266;2023-03-01T12:20:28;102592.78;;;13.50;38.92
76201;BME280;64981;52.930;9.266;2023-03-01T12:23:16;102587.50;;;13.60;38.02
76201;BME280;64981;52.930;9.266;2023-03-01T12:25:58;102583.78;;;13.41;38.65
76201;BME280;64981;52.930;9.266;2023-03-01T12:37:40;102582.22;;;14.17;36.32
76201;BME280;64981;52.930;9.266;2023-03-01T12:40:33;102563.63;;;14.08;36.60
76201;BME280;64981;52.930;9.266;2023-03-01T12:43:26;102568.66;;;14.39;35.88
76201;BME280;64981;52.930;9.266;2023-03-01T12:46:11;102570.88;;;13.96;35.82
76201;BME280;64981;52.930;9.266;2023-03-01T12:51:30;102551.75;;;13.24;37.39
76201;BME280;64981;52.930;9.266;2023-03-01T12:53:59;102551.78;;;13.33;37.03
76201;BME280;64981;52.930;9.266;2023-03-01T12:56:34;102542.72;;;13.45;36.77
76201;BME280;64981;52.930;9.266;2023-03-01T12:59:28;102552.41;;;13.94;36.57
76201;BME280;64981;52.930;9.266;2023-03-01T13:02:14;102545.84;;;13.70;36.29
76201;BME280;64981;52.930;9.266;2023-03-01T13:05:06;102538.81;;;13.40;37.04
76201;BME280;64981;52.930;9.266;2023-03-01T13:07:55;102534.88;;;12.64;38.11
76201;BME280;64981;52.930;9.266;2023-03-01T13:10:47;102535.84;;;12.63;38.65
76201;BME280;64981;52.930;9.266;2023-03-01T13:13:24;102527.38;;;12.90;38.19
76201;BME280;64981;52.930;9.266;2023-03-01T13:15:51;102528.03;;;12.62;38.65
76201;BME280;64981;52.930;9.266;2023-03-01T13:18:34;102514.38;;;12.15;39.35
76201;BME280;64981;52.930;9.266;2023-03-01T13:21:04;102523.78;;;12.80;38.92
76201;BME280;64981;52.930;9.266;2023-03-01T13:23:35;102517.16;;;12.34;39.34
76201;BME280;64981;52.930;9.266;2023-03-01T13:26:11;102509.00;;;13.17;38.93
76201;BME280;64981;52.930;9.266;2023-03-01T13:28:54;102510.72;;;13.28;38.08
76201;BME280;64981;52.930;9.266;2023-03-01T13:34:41;102508.91;;;13.47;38.47
76201;BME280;64981;52.930;9.266;2023-03-01T13:37:10;102504.28;;;13.30;39.17
76201;BME280;64981;52.930;9.266;2023-03-01T13:39:40;102506.28;;;13.57;38.24
76201;BME280;64981;52.930;9.266;2023-03-01T13:42:31;102508.50;;;13.42;38.47
76201;BME280;64981;52.930;9.266;2023-03-01T13:44:58;102506.91;;;13.11;39.10